sensor_id;sensor_type;location;lat;lon;timestamp;pressure;altitude;pressure_sealevel;temperature;humidity
64298;BME280;50639;53.270;7.956;2023-02-28T00:00:21;108118.13;;;4.95;100.00
64298;BME280;50639;53.270;7.956;2023-02-28T00:02:47;107598.72;;;4.79;100.00
64298;BME280;50639;53.270;7.956;2023-02-28T00:05:14;107561.38;;;4.79;100.00
64298;BME280;50639;53.270;7.956;2023-02-28T00:07:40;107257.41;;;4.67;100.00
64298;BME280;50639;53.270;7.956;2023-02-28T00:10:07;107406.75;;;4.72;100.00
64298;BME280;50639;53.270;7.956;2023-02-28T00:12:33;107446.72;;;4.73;100.00
64298;BME280;50639;53.270;7.956;2023-02-28T00:14:59;107548.09;;;4.76;100.00
64298;BME280;50639;53.270;7.956;2023-02-28T00:17:24;107616.56;;;4.77;100.00
64298;BME280;50639;53.270;7.956;2023-02-28T00:19:50;107925.13;;;4.87;100.00
64298;BME280;50639;53.270;7.956;2023-02-28T00:22:16;107752.63;;;4.80;100.00
64298;BME280;50639;53.270;7.956;2023-02-28T00:24:42;108080.78;;;4.91;100.00
64298;BME280;50639;53.270;7.956;2023-02-28T00:27:08;108434.06;;;5.00;100.00
64298;BME280;50639;53.270;7.956;2023-02-28T00:29:34;108839.09;;;5.14;100.00
64298;BME280;50639;53.270;7.956;2023-02-28T00:31:59;108424.25;;;4.99;100.00
64298;BME280;50639;53.270;7.956;2023-02-28T00:34:24;108764.31;;;5.11;100.00
64298;BME280;50639;53.270;7.956;2023-02-28T00:36:51;108842.66;;;5.13;100.00
64298;BME280;50639;53.270;7.956;2023-02-28T00:39:17;108505.28;;;5.00;100.00
64298;BME280;50639;53.270;7.956;2023-02-28T00:41:42;108406.47;;;4.98;100.00
64298;BME280;50639;53.270;7.956;2023-02-28T00:44:07;108317.47;;;4.95;100.00
64298;BME280;50639;53.270;7.956;2023-02-28T00:46:33;108161.78;;;4.90;100.00
64298;BME280;50639;53.270;7.956;2023-02-28T00:48:58;108477.66;;;4.99;100.00
64298;BME280;50639;53.270;7.956;2023-02-28T00:51:23;107857.59;;;4.79;100.00
64298;BME280;50639;53.270;7.956;2023-02-28T00:53:49;107744.69;;;4.76;100.00
64298;BME280;50639;53.270;7.956;2023-02-28T00:56:15;107638.84;;;4.73;100.00
64298;BME280;50639;53.270;7.956;2023-02-28T00:58:41;107399.75;;;4.66;100.00
64298;BME280;50639;53.270;7.956;2023-02-28T01:01:06;107609.50;;;4.73;100.00
64298;BME280;50639;53.270;7.956;2023-02-28T01:03:31;107613.94;;;4.74;100.00
64298;BME280;50639;53.270;7.956;2023-02-28T01:05:57;107971.41;;;4.86;100.00
64298;BME280;50639;53.270;7.956;2023-02-28T01:08:25;108647.69;;;5.08;100.00
64298;BME280;50639;53.270;7.956;2023-02-28T01:10:56;108831.97;;;5.16;100.00
64298;BME280;50639;53.270;7.956;2023-02-28T01:13:22;108691.28;;;5.12;100.00
64298;BME280;50639;53.270;7.956;2023-02-28T01:15:52;108945.09;;;5.19;100.00
64298;BME280;50639;53.270;7.956;2023-02-28T01:18:18;108642.34;;;5.09;100.00
64298;BME280;50639;53.270;7.956;2023-02-28T01:20:43;108482.09;;;5.05;100.00
64298;BME280;50639;53.270;7.956;2023-02-28T01:23:09;108882.75;;;5.19;100.00
64298;BME280;50639;53.270;7.956;2023-02-28T01:25:35;109273.78;;;5.31;100.00
64298;BME280;50639;53.270;7.956;2023-02-28T01:28:03;109692.66;;;5.46;100.00
64298;BME280;50639;53.270;7.956;2023-02-28T01:30:29;109141.97;;;5.29;100.00
64298;BME280;50639;53.270;7.956;2023-02-28T01:32:55;109555.41;;;5.44;100.00
64298;BME280;50639;53.270;7.956;2023-02-28T01:35:20;109771.16;;;5.51;100.00
64298;BME280;50639;53.270;7.956;2023-02-28T01:37:46;109896.84;;;5.54;100.00
64298;BME280;50639;53.270;7.956;2023-02-28T01:40:11;109930.75;;;5.55;100.00
64298;BME280;50639;53.270;7.956;2023-02-28T01:42:37;110052.94;;;5.59;100.00
64298;BME280;50639;53.270;7.956;2023-02-28T01:45:08;110060.97;;;5.60;100.00
64298;BME280;50639;53.270;7.956;2023-02-28T01:47:40;110003.91;;;5.58;100.00
64298;BME280;50639;53.270;7.956;2023-02-28T01:50:07;109575.03;;;5.46;100.00
64298;BME280;50639;53.270;7.956;2023-02-28T01:52:34;109714.13;;;5.52;100.00
64298;BME280;50639;53.270;7.956;2023-02-28T01:55:01;109789.97;;;5.55;100.00
64298;BME280;50639;53.270;7.956;2023-02-28T01:57:29;109771.19;;;5.54;100.00
64298;BME280;50639;53.270;7.956;2023-02-28T02:00:04;109747.13;;;5.54;100.00
64298;BME280;50639;53.270;7.956;2023-02-28T02:02:38;109862.19;;;5.58;100.00
64298;BME280;50639;53.270;7.956;2023-02-28T02:05:05;110021.78;;;5.62;100.00
64298;BME280;50639;53.270;7.956;2023-02-28T02:07:32;109789.03;;;5.55;100.00
64298;BME280;50639;53.270;7.956;2023-02-28T02:10:04;109705.25;;;5.53;100.00
64298;BME280;50639;53.270;7.956;2023-02-28T02:15:06;110003.97;;;5.63;100.00
64298;BME280;50639;53.270;7.956;2023-02-28T02:31:27;109599.22;;;5.53;100.00
64298;BME280;50639;53.270;7.956;2023-02-28T02:36:33;109535.91;;;5.52;100.00
64298;BME280;50639;53.270;7.956;2023-02-28T02:41:46;109434.31;;;5.51;100.00
64298;BME280;50639;53.270;7.956;2023-02-28T02:44:55;109453.03;;;5.51;100.00
64298;BME280;50639;53.270;7.956;2023-02-28T02:47:05;109251.59;;;5.44;100.00
64298;BME280;50639;53.270;7.956;2023-02-28T02:49:35;109090.34;;;5.41;100.00
64298;BME280;50639;53.270;7.956;2023-02-28T02:52:02;109099.25;;;5.41;100.00
64298;BME280;50639;53.270;7.956;2023-02-28T02:54:32;109139.34;;;5.43;100.00
64298;BME280;50639;53.270;7.956;2023-02-28T02:57:00;109221.34;;;5.45;100.00
64298;BME280;50639;53.270;7.956;2023-02-28T02:59:28;109027.97;;;5.39;100.00
64298;BME280;50639;53.270;7.956;2023-02-28T03:01:57;108573.75;;;5.27;100.00
64298;BME280;50639;53.270;7.956;2023-02-28T03:04:25;108623.59;;;5.28;100.00
64298;BME280;50639;53.270;7.956;2023-02-28T03:06:53;108965.63;;;5.38;100.00
64298;BME280;50639;53.270;7.956;2023-02-28T03:09:21;109090.34;;;5.42;100.00
64298;BME280;50639;53.270;7.956;2023-02-28T03:11:46;109068.97;;;5.41;100.00
64298;BME280;50639;53.270;7.956;2023-02-28T03:16:49;109258.75;;;5.47;100.00
64298;BME280;50639;53.270;7.956;2023-02-28T03:19:24;109294.41;;;5.49;100.00
64298;BME280;50639;53.270;7.956;2023-02-28T03:24:27;108883.66;;;5.36;100.00
64298;BME280;50639;53.270;7.956;2023-02-28T03:27:04;108685.06;;;5.29;100.00
64298;BME280;50639;53.270;7.956;2023-02-28T03:29:37;108648.53;;;5.30;100.00
64298;BME280;50639;53.270;7.956;2023-02-28T03:34:34;109071.63;;;5.44;100.00
64298;BME280;50639;53.270;7.956;2023-02-28T03:37:05;109199.06;;;5.48;100.00
64298;BME280;50639;53.270;7.956;2023-02-28T03:39:40;109087.66;;;5.42;100.00
64298;BME280;50639;53.270;7.956;2023-02-28T03:42:11;109020.88;;;5.41;100.00
64298;BME280;50639;53.270;7.956;2023-02-28T03:44:41;108968.28;;;5.38;100.00
64298;BME280;50639;53.270;7.956;2023-02-28T03:49:43;109015.53;;;5.41;100.00
64298;BME280;50639;53.270;7.956;2023-02-28T03:52:11;108974.53;;;5.39;100.00
64298;BME280;50639;53.270;7.956;2023-02-28T03:54:39;108839.13;;;5.35;100.00
64298;BME280;50639;53.270;7.956;2023-02-28T03:57:09;108861.41;;;5.37;100.00
64298;BME280;50639;53.270;7.956;2023-02-28T03:59:42;108903.25;;;5.38;100.00
64298;BME280;50639;53.270;7.956;2023-02-28T04:02:09;109078.78;;;5.43;100.00
64298;BME280;50639;53.270;7.956;2023-02-28T04:04:34;108734.91;;;5.32;100.00
64298;BME280;50639;53.270;7.956;2023-02-28T04:07:01;108469.59;;;5.25;100.00
64298;BME280;50639;53.270;7.956;2023-02-28T04:09:27;108288.84;;;5.20;100.00
64298;BME280;50639;53.270;7.956;2023-02-28T04:11:53;108341.38;;;5.22;100.00
64298;BME280;50639;53.270;7.956;2023-02-28T04:14:18;108363.63;;;5.23;100.00
64298;BME280;50639;53.270;7.956;2023-02-28T04:16:44;107857.22;;;5.08;100.00
64298;BME280;50639;53.270;7.956;2023-02-28T04:19:10;107786.91;;;5.07;100.00
64298;BME280;50639;53.270;7.956;2023-02-28T04:21:47;108238.09;;;5.21;100.00
64298;BME280;50639;53.270;7.956;2023-02-28T04:24:13;108483.81;;;5.29;100.00
64298;BME280;50639;53.270;7.956;2023-02-28T04:26:40;108723.34;;;5.36;100.00
64298;BME280;50639;53.270;7.956;2023-02-28T04:29:05;108574.63;;;5.30;100.00
64298;BME280;50639;53.270;7.956;2023-02-28T04:31:32;108385.91;;;5.23;100.00
64298;BME280;50639;53.270;7.956;2023-02-28T04:33:57;108335.13;;;5.22;100.00
64298;BME280;50639;53.270;7.956;2023-02-28T04:36:23;108196.28;;;5.19;100.00
64298;BME280;50639;53.270;7.956;2023-02-28T04:38:48;108125.03;;;5.18;100.00
64298;BME280;50639;53.270;7.956;2023-02-28T04:41:14;108012.03;;;5.14;100.00
64298;BME280;50639;53.270;7.956;2023-02-28T04:43:40;107998.69;;;5.14;100.00
64298;BME280;50639;53.270;7.956;2023-02-28T04:46:08;108153.53;;;5.19;100.00
64298;BME280;50639;53.270;7.956;2023-02-28T04:48:36;108065.41;;;5.16;100.00
64298;BME280;50639;53.270;7.956;2023-02-28T04:51:02;107549.47;;;4.98;100.00
64298;BME280;50639;53.270;7.956;2023-02-28T04:53:28;107678.41;;;5.03;100.00
64298;BME280;50639;53.270;7.956;2023-02-28T04:55:54;107705.09;;;5.03;100.00
64298;BME280;50639;53.270;7.956;2023-02-28T04:58:19;107889.25;;;5.09;100.00
64298;BME280;50639;53.270;7.956;2023-02-28T05:00:48;108034.28;;;5.15;100.00
64298;BME280;50639;53.270;7.956;2023-02-28T05:03:14;107954.19;;;5.12;100.00
64298;BME280;50639;53.270;7.956;2023-02-28T05:05:40;107975.56;;;5.12;100.00
64298;BME280;50639;53.270;7.956;2023-02-28T05:08:05;107604.63;;;4.99;100.00
64298;BME280;50639;53.270;7.956;2023-02-28T05:10:31;107479.22;;;4.96;100.00
64298;BME280;50639;53.270;7.956;2023-02-28T05:12:57;107708.69;;;5.02;100.00
64298;BME280;50639;53.270;7.956;2023-02-28T05:15:23;107457.91;;;4.93;100.00
64298;BME280;50639;53.270;7.956;2023-02-28T05:17:49;107289.00;;;4.88;100.00
64298;BME280;50639;53.270;7.956;2023-02-28T05:20:15;107341.44;;;4.89;100.00
64298;BME280;50639;53.270;7.956;2023-02-28T05:22:41;107141.44;;;4.83;100.00
64298;BME280;50639;53.270;7.956;2023-02-28T05:25:06;107344.13;;;4.89;100.00
64298;BME280;50639;53.270;7.956;2023-02-28T05:27:32;107584.19;;;4.97;100.00
64298;BME280;50639;53.270;7.956;2023-02-28T05:29:57;107803.00;;;5.04;100.00
64298;BME280;50639;53.270;7.956;2023-02-28T05:32:24;107742.53;;;5.00;100.00
64298;BME280;50639;53.270;7.956;2023-02-28T05:34:49;107767.44;;;5.02;100.00
64298;BME280;50639;53.270;7.956;2023-02-28T05:37:15;107876.84;;;5.05;100.00
64298;BME280;50639;53.270;7.956;2023-02-28T05:39:41;107314.78;;;4.88;100.00
64298;BME280;50639;53.270;7.956;2023-02-28T05:42:06;106637.69;;;4.65;100.00
64298;BME280;50639;53.270;7.956;2023-02-28T05:44:32;107651.78;;;5.00;100.00
64298;BME280;50639;53.270;7.956;2023-02-28T05:46:58;108027.16;;;5.14;100.00
64298;BME280;50639;53.270;7.956;2023-02-28T05:49:23;107685.56;;;5.01;100.00
64298;BME280;50639;53.270;7.956;2023-02-28T05:51:48;107487.22;;;4.95;100.00
64298;BME280;50639;53.270;7.956;2023-02-28T05:54:14;107481.03;;;4.94;100.00
64298;BME280;50639;53.270;7.956;2023-02-28T05:56:39;107229.44;;;4.85;100.00
64298;BME280;50639;53.270;7.956;2023-02-28T05:59:06;107077.47;;;4.80;100.00
64298;BME280;50639;53.270;7.956;2023-02-28T06:01:44;106830.44;;;4.72;100.00
64298;BME280;50639;53.270;7.956;2023-02-28T06:04:13;106762.06;;;4.69;100.00
64298;BME280;50639;53.270;7.956;2023-02-28T06:06:43;106534.69;;;4.61;100.00
64298;BME280;50639;53.270;7.956;2023-02-28T06:09:10;106471.63;;;4.60;100.00
64298;BME280;50639;53.270;7.956;2023-02-28T06:11:35;106496.53;;;4.59;100.00
64298;BME280;50639;53.270;7.956;2023-02-28T06:14:01;106963.78;;;4.73;100.00
64298;BME280;50639;53.270;7.956;2023-02-28T06:16:27;106736.38;;;4.65;100.00
64298;BME280;50639;53.270;7.956;2023-02-28T06:18:53;107058.00;;;4.75;100.00
64298;BME280;50639;53.270;7.956;2023-02-28T06:21:21;107057.19;;;4.73;100.00
64298;BME280;50639;53.270;7.956;2023-02-28T06:23:46;107097.13;;;4.76;100.00
64298;BME280;50639;53.270;7.956;2023-02-28T06:26:12;107283.78;;;4.81;100.00
64298;BME280;50639;53.270;7.956;2023-02-28T06:28:37;107267.81;;;4.79;100.00
64298;BME280;50639;53.270;7.956;2023-02-28T06:31:07;107144.31;;;4.74;100.00
64298;BME280;50639;53.270;7.956;2023-02-28T06:33:32;107131.88;;;4.73;100.00
64298;BME280;50639;53.270;7.956;2023-02-28T06:35:58;106976.41;;;4.68;100.00
64298;BME280;50639;53.270;7.956;2023-02-28T06:38:26;106862.69;;;4.64;100.00
64298;BME280;50639;53.270;7.956;2023-02-28T06:40:55;106649.50;;;4.57;100.00
64298;BME280;50639;53.270;7.956;2023-02-28T06:43:21;106358.28;;;4.47;100.00
64298;BME280;50639;53.270;7.956;2023-02-28T06:45:47;106211.03;;;4.39;100.00
64298;BME280;50639;53.270;7.956;2023-02-28T06:48:12;105998.13;;;4.30;100.00
64298;BME280;50639;53.270;7.956;2023-02-28T06:50:37;105959.16;;;4.28;100.00
64298;BME280;50639;53.270;7.956;2023-02-28T06:53:03;105890.03;;;4.23;100.00
64298;BME280;50639;53.270;7.956;2023-02-28T06:55:28;105782.84;;;4.16;100.00
64298;BME280;50639;53.270;7.956;2023-02-28T06:57:54;105513.41;;;4.04;100.00
64298;BME280;50639;53.270;7.956;2023-02-28T07:00:22;105499.38;;;4.00;100.00
64298;BME280;50639;53.270;7.956;2023-02-28T07:02:47;105410.88;;;3.95;100.00
64298;BME280;50639;53.270;7.956;2023-02-28T07:05:13;105199.25;;;3.84;100.00
64298;BME280;50639;53.270;7.956;2023-02-28T07:07:39;105206.63;;;3.79;100.00
64298;BME280;50639;53.270;7.956;2023-02-28T07:10:09;105158.94;;;3.74;100.00
64298;BME280;50639;53.270;7.956;2023-02-28T07:12:35;105124.47;;;3.71;100.00
64298;BME280;50639;53.270;7.956;2023-02-28T07:15:01;105077.72;;;3.66;100.00
64298;BME280;50639;53.270;7.956;2023-02-28T07:17:26;105058.31;;;3.64;100.00
64298;BME280;50639;53.270;7.956;2023-02-28T07:19:52;105206.38;;;3.66;100.00
64298;BME280;50639;53.270;7.956;2023-02-28T07:22:18;105368.53;;;3.71;100.00
64298;BME280;50639;53.270;7.956;2023-02-28T07:24:43;105411.94;;;3.73;100.00
64298;BME280;50639;53.270;7.956;2023-02-28T07:27:08;105451.00;;;3.72;100.00
64298;BME280;50639;53.270;7.956;2023-02-28T07:29:34;105467.84;;;3.73;100.00
64298;BME280;50639;53.270;7.956;2023-02-28T07:31:59;105597.25;;;3.77;100.00
64298;BME280;50639;53.270;7.956;2023-02-28T07:34:24;105607.91;;;3.77;100.00
64298;BME280;50639;53.270;7.956;2023-02-28T07:36:54;105739.03;;;3.82;100.00
64298;BME280;50639;53.270;7.956;2023-02-28T07:39:20;105865.81;;;3.86;100.00
64298;BME280;50639;53.270;7.956;2023-02-28T07:41:45;105949.16;;;3.89;100.00
64298;BME280;50639;53.270;7.956;2023-02-28T07:44:11;106001.41;;;3.92;100.00
64298;BME280;50639;53.270;7.956;2023-02-28T07:46:36;106145.97;;;3.97;100.00
64298;BME280;50639;53.270;7.956;2023-02-28T07:49:02;106384.53;;;4.07;100.00
64298;BME280;50639;53.270;7.956;2023-02-28T07:51:28;106508.69;;;4.12;100.00
64298;BME280;50639;53.270;7.956;2023-02-28T07:53:54;106970.22;;;4.31;100.00
64298;BME280;50639;53.270;7.956;2023-02-28T07:56:19;107318.28;;;4.47;100.00
64298;BME280;50639;53.270;7.956;2023-02-28T07:58:45;107668.38;;;4.61;100.00
64298;BME280;50639;53.270;7.956;2023-02-28T08:01:10;107972.41;;;4.76;100.00
64298;BME280;50639;53.270;7.956;2023-02-28T08:03:36;108234.78;;;4.90;100.00
64298;BME280;50639;53.270;7.956;2023-02-28T08:06:03;108313.91;;;4.97;100.00
64298;BME280;50639;53.270;7.956;2023-02-28T08:08:29;109062.66;;;5.27;100.00
64298;BME280;50639;53.270;7.956;2023-02-28T08:11:00;108800.84;;;5.19;100.00
64298;BME280;50639;53.270;7.956;2023-02-28T08:13:26;109146.41;;;5.27;100.00
64298;BME280;50639;53.270;7.956;2023-02-28T08:15:52;108938.81;;;5.16;100.00
64298;BME280;50639;53.270;7.956;2023-02-28T08:18:18;109024.31;;;5.16;100.00
64298;BME280;50639;53.270;7.956;2023-02-28T08:20:43;109214.91;;;5.19;100.00
64298;BME280;50639;53.270;7.956;2023-02-28T08:23:08;109191.72;;;5.15;100.00
64298;BME280;50639;53.270;7.956;2023-02-28T08:25:34;109255.81;;;5.14;100.00
64298;BME280;50639;53.270;7.956;2023-02-28T08:27:59;109322.59;;;5.12;100.00
64298;BME280;50639;53.270;7.956;2023-02-28T08:30:25;109415.19;;;5.10;100.00
64298;BME280;50639;53.270;7.956;2023-02-28T08:32:50;109613.78;;;5.11;100.00
64298;BME280;50639;53.270;7.956;2023-02-28T08:35:15;109781.19;;;5.12;100.00
64298;BME280;50639;53.270;7.956;2023-02-28T08:37:41;110069.00;;;5.17;100.00
64298;BME280;50639;53.270;7.956;2023-02-28T08:40:07;110495.06;;;5.27;100.00
64298;BME280;50639;53.270;7.956;2023-02-28T08:42:32;110447.75;;;5.23;100.00
64298;BME280;50639;53.270;7.956;2023-02-28T08:44:58;110659.06;;;5.29;100.00
64298;BME280;50639;53.270;7.956;2023-02-28T08:47:23;111129.25;;;5.43;100.00
64298;BME280;50639;53.270;7.956;2023-02-28T08:49:49;111319.22;;;5.46;100.00
64298;BME280;50639;53.270;7.956;2023-02-28T08:52:14;111663.81;;;5.56;100.00
64298;BME280;50639;53.270;7.956;2023-02-28T08:54:39;111896.84;;;5.62;100.00
64298;BME280;50639;53.270;7.956;2023-02-28T08:57:05;112146.94;;;5.69;100.00
64298;BME280;50639;53.270;7.956;2023-02-28T08:59:31;112107.31;;;5.62;100.00
64298;BME280;50639;53.270;7.956;2023-02-28T09:01:57;112353.75;;;5.66;100.00
64298;BME280;50639;53.270;7.956;2023-02-28T09:04:23;112547.44;;;5.68;100.00
64298;BME280;50639;53.270;7.956;2023-02-28T09:06:48;112939.00;;;5.80;100.00
64298;BME280;50639;53.270;7.956;2023-02-28T09:09:14;113088.31;;;5.84;100.00
64298;BME280;50639;53.270;7.956;2023-02-28T09:11:39;113388.97;;;5.95;100.00
64298;BME280;50639;53.270;7.956;2023-02-28T09:14:05;113646.78;;;6.04;100.00
64298;BME280;50639;53.270;7.956;2023-02-28T09:16:31;113648.19;;;5.99;100.00
64298;BME280;50639;53.270;7.956;2023-02-28T09:18:57;114082.16;;;6.11;100.00
64298;BME280;50639;53.270;7.956;2023-02-28T09:21:22;114322.94;;;6.16;100.00
64298;BME280;50639;53.270;7.956;2023-02-28T09:23:48;114376.53;;;6.16;100.00
64298;BME280;50639;53.270;7.956;2023-02-28T09:26:18;114614.75;;;6.23;100.00
64298;BME280;50639;53.270;7.956;2023-02-28T09:28:44;114854.00;;;6.31;100.00
64298;BME280;50639;53.270;7.956;2023-02-28T09:31:11;115090.50;;;6.37;100.00
64298;BME280;50639;53.270;7.956;2023-02-28T09:33:37;115210.69;;;6.41;100.00
64298;BME280;50639;53.270;7.956;2023-02-28T09:36:02;115297.16;;;6.38;100.00
64298;BME280;50639;53.270;7.956;2023-02-28T09:38:29;115512.13;;;6.43;100.00
64298;BME280;50639;53.270;7.956;2023-02-28T09:40:58;115700.03;;;6.44;100.00
64298;BME280;50639;53.270;7.956;2023-02-28T09:43:33;115797.84;;;6.48;100.00
64298;BME280;50639;53.270;7.956;2023-02-28T09:48:44;115886.88;;;6.52;100.00
64298;BME280;50639;53.270;7.956;2023-02-28T09:51:14;116103.59;;;6.63;100.00
64298;BME280;50639;53.270;7.956;2023-02-28T09:53:40;116216.22;;;6.70;100.00
64298;BME280;50639;53.270;7.956;2023-02-28T09:56:09;116100.47;;;6.67;100.00
64298;BME280;50639;53.270;7.956;2023-02-28T09:58:42;115942.47;;;6.62;100.00
64298;BME280;50639;53.270;7.956;2023-02-28T10:03:36;116311.19;;;6.80;100.00
64298;BME280;50639;53.270;7.956;2023-02-28T10:06:14;116146.97;;;6.75;100.00
64298;BME280;50639;53.270;7.956;2023-02-28T10:08:48;116264.94;;;6.82;100.00
64298;BME280;50639;53.270;7.956;2023-02-28T10:11:16;116456.59;;;6.91;100.00
64298;BME280;50639;53.270;7.956;2023-02-28T10:16:24;116640.41;;;7.02;100.00
64298;BME280;50639;53.270;7.956;2023-02-28T10:18:52;116686.03;;;7.09;100.00
64298;BME280;50639;53.270;7.956;2023-02-28T10:22:08;116648.00;;;7.13;100.00
64298;BME280;50639;53.270;7.956;2023-02-28T10:24:28;116636.84;;;7.17;100.00
64298;BME280;50639;53.270;7.956;2023-02-28T10:26:56;116565.88;;;7.15;100.00
64298;BME280;50639;53.270;7.956;2023-02-28T10:29:24;116611.28;;;7.20;100.00
64298;BME280;50639;53.270;7.956;2023-02-28T10:31:50;116600.31;;;7.26;100.00
64298;BME280;50639;53.270;7.956;2023-02-28T10:34:15;115873.63;;;7.04;100.00
64298;BME280;50639;53.270;7.956;2023-02-28T10:36:41;115867.78;;;7.08;100.00
64298;BME280;50639;53.270;7.956;2023-02-28T10:41:52;116163.63;;;7.28;100.00
64298;BME280;50639;53.270;7.956;2023-02-28T10:44:19;116430.28;;;7.42;100.00
64298;BME280;50639;53.270;7.956;2023-02-28T10:46:45;116356.03;;;7.43;100.00
64298;BME280;50639;53.270;7.956;2023-02-28T10:49:17;116267.72;;;7.46;100.00
64298;BME280;50639;53.270;7.956;2023-02-28T10:51:44;116334.75;;;7.53;100.00
64298;BME280;50639;53.270;7.956;2023-02-28T10:54:16;115589.16;;;7.31;100.00
64298;BME280;50639;53.270;7.956;2023-02-28T10:56:43;115908.63;;;7.46;100.00
64298;BME280;50639;53.270;7.956;2023-02-28T11:01:44;116574.03;;;7.77;100.00
64298;BME280;50639;53.270;7.956;2023-02-28T11:06:48;116801.06;;;7.95;100.00
64298;BME280;50639;53.270;7.956;2023-02-28T11:11:50;116732.78;;;8.01;100.00
64298;BME280;50639;53.270;7.956;2023-02-28T11:14:21;116498.31;;;7.97;100.00
64298;BME280;50639;53.270;7.956;2023-02-28T11:16:47;116473.47;;;7.99;100.00
64298;BME280;50639;53.270;7.956;2023-02-28T11:19:18;116415.44;;;8.01;100.00
64298;BME280;50639;53.270;7.956;2023-02-28T11:21:48;116583.53;;;8.13;100.00
64298;BME280;50639;53.270;7.956;2023-02-28T11:24:24;116808.06;;;8.24;100.00
64298;BME280;50639;53.270;7.956;2023-02-28T11:26:52;116823.06;;;8.29;100.00
64298;BME280;50639;53.270;7.956;2023-02-28T11:29:24;116808.53;;;8.35;100.00
64298;BME280;50639;53.270;7.956;2023-02-28T11:34:34;116408.03;;;8.31;100.00
64298;BME280;50639;53.270;7.956;2023-02-28T11:37:00;115393.94;;;8.04;100.00
64298;BME280;50639;53.270;7.956;2023-02-28T11:39:26;115657.66;;;8.16;100.00
64298;BME280;50639;53.270;7.956;2023-02-28T11:47:09;114803.81;;;7.99;100.00
64298;BME280;50639;53.270;7.956;2023-02-28T11:49:43;114969.56;;;8.09;100.00
64298;BME280;50639;53.270;7.956;2023-02-28T11:57:08;114896.81;;;8.07;100.00
64298;BME280;50639;53.270;7.956;2023-02-28T12:07:17;115126.69;;;8.22;100.00
64298;BME280;50639;53.270;7.956;2023-02-28T12:12:17;114776.47;;;8.15;100.00
64298;BME280;50639;53.270;7.956;2023-02-28T12:22:22;115572.69;;;8.45;100.00
64298;BME280;50639;53.270;7.956;2023-02-28T12:25:08;116031.00;;;8.63;100.00
64298;BME280;50639;53.270;7.956;2023-02-28T12:27:41;115866.53;;;8.60;100.00
64298;BME280;50639;53.270;7.956;2023-02-28T12:30:27;116018.97;;;8.68;100.00
64298;BME280;50639;53.270;7.956;2023-02-28T12:35:33;115313.34;;;8.53;100.00
64298;BME280;50639;53.270;7.956;2023-02-28T12:38:10;114951.09;;;8.44;100.00
64298;BME280;50639;53.270;7.956;2023-02-28T12:40:45;114931.69;;;8.48;100.00
64298;BME280;50639;53.270;7.956;2023-02-28T12:43:13;115329.50;;;8.63;100.00
64298;BME280;50639;53.270;7.956;2023-02-28T12:46:02;115804.81;;;8.80;100.00
64298;BME280;50639;53.270;7.956;2023-02-28T12:48:28;116329.06;;;8.98;100.00
64298;BME280;50639;53.270;7.956;2023-02-28T12:50:54;116428.06;;;9.00;100.00
64298;BME280;50639;53.270;7.956;2023-02-28T12:53:25;116403.22;;;9.03;100.00
64298;BME280;50639;53.270;7.956;2023-02-28T12:59:01;116371.53;;;9.09;100.00
64298;BME280;50639;53.270;7.956;2023-02-28T13:01:29;116389.63;;;9.10;100.00
64298;BME280;50639;53.270;7.956;2023-02-28T13:06:36;115971.16;;;9.01;100.00
64298;BME280;50639;53.270;7.956;2023-02-28T13:11:50;115967.81;;;9.03;100.00
64298;BME280;50639;53.270;7.956;2023-02-28T13:19:16;116147.16;;;9.10;100.00
64298;BME280;50639;53.270;7.956;2023-02-28T13:21:43;115857.25;;;9.02;100.00
64298;BME280;50639;53.270;7.956;2023-02-28T13:24:10;115778.06;;;9.00;100.00
64298;BME280;50639;53.270;7.956;2023-02-28T13:29:21;115389.16;;;8.88;
64298;BME280;50639;53.270;7.956;2023-02-28T13:34:34;115286.88;;;8.88;100.00
64298;BME280;50639;53.270;7.956;2023-02-28T13:47:41;115761.13;;;9.11;100.00
64298;BME280;50639;53.270;7.956;2023-02-28T14:01:04;115380.16;;;9.07;100.00
64298;BME280;50639;53.270;7.956;2023-02-28T14:03:39;115325.34;;;9.07;100.00
64298;BME280;50639;53.270;7.956;2023-02-28T14:06:22;115299.50;;;9.09;100.00
64298;BME280;50639;53.270;7.956;2023-02-28T14:09:02;115100.75;;;9.05;100.00
64298;BME280;50639;53.270;7.956;2023-02-28T14:11:37;115036.28;;;9.06;100.00
64298;BME280;50639;53.270;7.956;2023-02-28T14:14:03;115165.13;;;9.12;100.00
64298;BME280;50639;53.270;7.956;2023-02-28T14:16:39;114889.94;;;9.06;100.00
64298;BME280;50639;53.270;7.956;2023-02-28T14:27:31;114745.59;;;9.08;100.00
64298;BME280;50639;53.270;7.956;2023-02-28T14:37:52;115119.13;;;9.31;100.00
64298;BME280;50639;53.270;7.956;2023-02-28T14:40:24;115118.41;;;9.33;100.00
64298;BME280;50639;53.270;7.956;2023-02-28T14:43:02;115405.06;;;9.45;100.00
64298;BME280;50639;53.270;7.956;2023-02-28T14:45:29;115380.97;;;9.47;100.00
64298;BME280;50639;53.270;7.956;2023-02-28T14:47:55;115601.81;;;9.55;100.00
64298;BME280;50639;53.270;7.956;2023-02-28T14:50:22;115482.00;;;9.52;100.00
64298;BME280;50639;53.270;7.956;2023-02-28T14:52:51;115399.97;;;9.48;100.00
64298;BME280;50639;53.270;7.956;2023-02-28T14:55:17;115589.16;;;9.54;100.00
64298;BME280;50639;53.270;7.956;2023-02-28T14:57:53;115581.88;;;9.53;100.00
64298;BME280;50639;53.270;7.956;2023-02-28T15:00:26;115640.38;;;9.54;100.00
64298;BME280;50639;53.270;7.956;2023-02-28T15:02:52;116357.53;;;9.81;100.00
64298;BME280;50639;53.270;7.956;2023-02-28T15:07:47;116904.69;;;10.02;100.00
64298;BME280;50639;53.270;7.956;2023-02-28T15:12:55;117617.00;;;10.31;100.00
64298;BME280;50639;53.270;7.956;2023-02-28T15:15:25;117619.09;;;10.33;100.00
64298;BME280;50639;53.270;7.956;2023-02-28T15:17:52;117679.63;;;10.42;100.00